Time;durP1;ratioP1;P1;durP2;ratioP2;P2;SDS_P1;SDS_P2;PMS_P1;PMS_P2;Temp;Humidity;BMP_temperature;BMP_pressure;BME280_temperature;BME280_humidity;BME280_pressure;Samples;Min_cycle;Max_cycle;Signal;HPM_P1;HPM_P2
2022/04/08 00:00:58;;;;;;;0.10;0.10;;;;;;;;;;5022599;28;20029;-67
2022/04/08 00:03:27;;;;;;;1.25;0.17;;;;;;;;;;5019890;28;20040;-67
2022/04/08 00:05:54;;;;;;;0.10;0.10;;;;;;;;;;5019048;28;20037;-67
2022/04/08 00:08:20;;;;;;;0.70;0.70;;;;;;;;;;5024954;28;20018;-67
2022/04/08 00:10:47;;;;;;;0.30;0.30;;;;;;;;;;5015591;28;20033;-64
2022/04/08 00:13:13;;;;;;;0.73;0.57;;;;;;;;;;5012995;28;20033;-67
2022/04/08 00:15:40;;;;;;;0.88;0.75;;;;;;;;;;5010465;28;20041;-66
2022/04/08 00:18:07;;;;;;;0.70;0.70;;;;;;;;;;5016602;28;20121;-67
2022/04/08 00:20:36;;;;;;;1.25;0.82;;;;;;;;;;5018782;28;20116;-67
2022/04/08 00:23:03;;;;;;;1.25;0.85;;;;;;;;;;5019530;28;20029;-67
2022/04/08 00:25:30;;;;;;;3.17;1.15;;;;;;;;;;5013965;28;20034;-67
2022/04/08 00:27:56;;;;;;;1.05;0.77;;;;;;;;;;5014775;28;20038;-67
2022/04/08 00:30:22;;;;;;;1.48;0.90;;;;;;;;;;5015724;28;20084;-67
2022/04/08 00:32:47;;;;;;;2.65;0.90;;;;;;;;;;5019908;28;20026;-67
2022/04/08 00:35:13;;;;;;;1.25;0.80;;;;;;;;;;5013433;28;20042;-67
2022/04/08 00:37:40;;;;;;;0.40;0.40;;;;;;;;;;5019362;28;20108;-67
2022/04/08 00:40:08;;;;;;;0.30;0.13;;;;;;;;;;5014878;28;20027;-67
2022/04/08 00:42:34;;;;;;;0.70;0.70;;;;;;;;;;5015614;28;20618;-67
2022/04/08 00:44:59;;;;;;;0.20;0.20;;;;;;;;;;5021615;28;20037;-67
2022/04/08 00:47:25;;;;;;;0.35;0.20;;;;;;;;;;5018304;28;20022;-68
2022/04/08 00:49:53;;;;;;;0.30;0.17;;;;;;;;;;5020542;28;20029;-67
2022/04/08 00:52:19;;;;;;;0.22;0.00;;;;;;;;;;5023713;28;20478;-67
2022/04/08 00:54:45;;;;;;;0.00;0.00;;;;;;;;;;5012078;28;20034;-67
2022/04/08 00:57:12;;;;;;;2.10;0.30;;;;;;;;;;5014638;28;20486;-67
2022/04/08 00:59:38;;;;;;;0.03;0.03;;;;;;;;;;5011139;28;20034;-67
2022/04/08 01:02:04;;;;;;;0.10;0.10;;;;;;;;;;5016496;28;20038;-66
2022/04/08 01:04:30;;;;;;;0.10;0.10;;;;;;;;;;5018963;28;20029;-66
2022/04/08 01:06:56;;;;;;;0.20;0.20;;;;;;;;;;5014805;28;20038;-66
2022/04/08 01:09:22;;;;;;;0.10;0.10;;;;;;;;;;5025747;28;20029;-67
2022/04/08 01:11:48;;;;;;;0.20;0.15;;;;;;;;;;5024874;28;20387;-67
2022/04/08 01:14:16;;;;;;;0.15;0.15;;;;;;;;;;5023031;28;20044;-66
2022/04/08 01:16:42;;;;;;;0.03;0.03;;;;;;;;;;5018916;28;20039;-67
2022/04/08 01:19:08;;;;;;;1.08;0.13;;;;;;;;;;5017253;28;20044;-66
2022/04/08 01:21:34;;;;;;;0.20;0.20;;;;;;;;;;5012016;28;20467;-66
2022/04/08 01:24:01;;;;;;;0.00;0.00;;;;;;;;;;5021717;28;20057;-67
2022/04/08 01:26:27;;;;;;;0.22;0.22;;;;;;;;;;5021330;28;20464;-66
2022/04/08 01:28:55;;;;;;;0.20;0.20;;;;;;;;;;5026071;28;20047;-67
2022/04/08 01:31:21;;;;;;;0.32;0.20;;;;;;;;;;5020510;28;20131;-66
2022/04/08 01:33:48;;;;;;;0.57;0.30;;;;;;;;;;5011337;28;20060;-67
2022/04/08 01:36:14;;;;;;;0.43;0.32;;;;;;;;;;5019521;28;20030;-67
2022/04/08 01:38:40;;;;;;;0.25;0.20;;;;;;;;;;5020086;28;20053;-67
2022/04/08 01:41:05;;;;;;;0.52;0.30;;;;;;;;;;5017819;28;20066;-67
2022/04/08 01:43:31;;;;;;;0.57;0.32;;;;;;;;;;5019550;28;20065;-67
2022/04/08 01:45:56;;;;;;;2.08;0.55;;;;;;;;;;5024934;28;20116;-67
2022/04/08 01:48:22;;;;;;;2.85;0.52;;;;;;;;;;5020368;28;20042;-68
2022/04/08 01:50:48;;;;;;;0.75;0.50;;;;;;;;;;5018244;28;20112;-67
2022/04/08 01:53:15;;;;;;;1.90;0.25;;;;;;;;;;5029419;28;20040;-67
2022/04/08 01:55:42;;;;;;;4.15;0.82;;;;;;;;;;5024147;28;20033;-67
2022/04/08 01:58:08;;;;;;;2.17;0.50;;;;;;;;;;5021943;28;20029;-67
2022/04/08 02:00:34;;;;;;;0.85;0.50;;;;;;;;;;5023357;28;20840;-67
2022/04/08 02:03:00;;;;;;;1.08;0.80;;;;;;;;;;5018470;28;20045;-67
2022/04/08 02:05:26;;;;;;;1.85;0.70;;;;;;;;;;5029478;28;20030;-67
2022/04/08 02:07:53;;;;;;;2.05;1.05;;;;;;;;;;5022911;28;20422;-67
2022/04/08 02:10:19;;;;;;;1.45;0.70;;;;;;;;;;5025970;28;20041;-67
2022/04/08 02:12:45;;;;;;;2.15;0.80;;;;;;;;;;5015719;28;20029;-67
2022/04/08 02:15:11;;;;;;;1.05;0.70;;;;;;;;;;5033837;28;20367;-67
2022/04/08 02:17:37;;;;;;;1.95;0.80;;;;;;;;;;5039738;28;20068;-67
2022/04/08 02:20:04;;;;;;;1.55;0.60;;;;;;;;;;5020083;28;20057;-66
2022/04/08 02:22:31;;;;;;;2.38;0.95;;;;;;;;;;5015943;28;20029;-67
2022/04/08 02:24:57;;;;;;;2.00;0.90;;;;;;;;;;5017732;28;20418;-67
2022/04/08 02:27:26;;;;;;;2.75;1.00;;;;;;;;;;5022652;28;20026;-67
2022/04/08 02:29:52;;;;;;;2.25;1.00;;;;;;;;;;5019955;28;20570;-67
2022/04/08 02:32:18;;;;;;;2.55;0.98;;;;;;;;;;5023037;28;20103;-67
2022/04/08 02:34:44;;;;;;;1.88;0.75;;;;;;;;;;5023782;28;20469;-66
2022/04/08 02:37:10;;;;;;;1.88;0.98;;;;;;;;;;5019438;28;20025;-67
2022/04/08 02:39:35;;;;;;;1.48;1.00;;;;;;;;;;5025938;28;20033;-67
2022/04/08 02:42:01;;;;;;;2.20;1.00;;;;;;;;;;5024242;28;20050;-67
2022/04/08 02:44:30;;;;;;;9.13;1.30;;;;;;;;;;5016430;28;20046;-67
2022/04/08 02:46:58;;;;;;;2.03;1.00;;;;;;;;;;5020267;28;20087;-67
2022/04/08 02:49:24;;;;;;;2.10;0.90;;;;;;;;;;5022974;28;20033;-67
2022/04/08 02:51:49;;;;;;;1.27;0.80;;;;;;;;;;5026516;28;20037;-67
2022/04/08 02:54:15;;;;;;;2.83;0.98;;;;;;;;;;5022253;28;20376;-67
2022/04/08 02:56:41;;;;;;;3.05;0.77;;;;;;;;;;5034164;28;20500;-66
2022/04/08 02:59:08;;;;;;;1.52;0.52;;;;;;;;;;5026988;28;20502;-66
2022/04/08 03:01:34;;;;;;;2.60;1.00;;;;;;;;;;5023096;28;20394;-67
2022/04/08 03:04:00;;;;;;;1.95;1.40;;;;;;;;;;5026106;28;20034;-66
2022/04/08 03:06:26;;;;;;;4.82;0.98;;;;;;;;;;5024616;28;20030;-67
2022/04/08 03:08:52;;;;;;;2.75;1.17;;;;;;;;;;5032266;28;20372;-67
2022/04/08 03:11:18;;;;;;;1.63;0.93;;;;;;;;;;5020530;28;20040;-67
2022/04/08 03:13:44;;;;;;;2.40;1.05;;;;;;;;;;5016806;28;20828;-67
2022/04/08 03:16:10;;;;;;;2.50;0.98;;;;;;;;;;5016952;28;20037;-67
2022/04/08 03:18:35;;;;;;;3.08;1.10;;;;;;;;;;5022475;28;20036;-67
2022/04/08 03:21:02;;;;;;;2.05;1.20;;;;;;;;;;5019343;28;20026;-66
2022/04/08 03:23:28;;;;;;;1.85;1.13;;;;;;;;;;5032712;28;20517;-66
2022/04/08 03:25:53;;;;;;;6.20;1.40;;;;;;;;;;5033954;28;20037;-67
2022/04/08 03:28:19;;;;;;;2.22;1.02;;;;;;;;;;5021606;28;20096;-67
2022/04/08 03:30:46;;;;;;;1.35;1.23;;;;;;;;;;5024087;28;20033;-67
2022/04/08 03:33:12;;;;;;;2.00;1.50;;;;;;;;;;5020638;28;20033;-67
2022/04/08 03:35:37;;;;;;;0.88;0.88;;;;;;;;;;5019351;28;20026;-66
2022/04/08 03:38:04;;;;;;;1.45;1.00;;;;;;;;;;5027462;28;20045;-67
2022/04/08 03:40:31;;;;;;;2.42;1.08;;;;;;;;;;5028434;28;21013;-67
2022/04/08 03:42:56;;;;;;;3.75;1.15;;;;;;;;;;5022801;28;20049;-67
2022/04/08 03:45:22;;;;;;;6.28;1.45;;;;;;;;;;5015089;28;20030;-66
2022/04/08 03:47:48;;;;;;;4.15;1.35;;;;;;;;;;5029812;28;20064;-67
2022/04/08 03:50:14;;;;;;;1.83;1.05;;;;;;;;;;5020531;28;20037;-67
2022/04/08 03:52:40;;;;;;;3.92;1.27;;;;;;;;;;5020383;28;20043;-66
2022/04/08 03:55:06;;;;;;;2.92;1.20;;;;;;;;;;5023812;28;20037;-67
2022/04/08 03:57:32;;;;;;;1.88;1.40;;;;;;;;;;5026804;28;20033;-67
2022/04/08 03:59:58;;;;;;;1.30;1.20;;;;;;;;;;5027077;28;20026;-67
2022/04/08 04:02:24;;;;;;;1.92;1.02;;;;;;;;;;5030845;28;20033;-66
2022/04/08 04:04:50;;;;;;;0.82;0.82;;;;;;;;;;5017183;28;20435;-67
2022/04/08 04:07:17;;;;;;;2.10;1.00;;;;;;;;;;5013573;28;20117;-66
2022/04/08 04:09:44;;;;;;;1.30;1.15;;;;;;;;;;5020673;28;20034;-66
2022/04/08 04:12:10;;;;;;;2.03;1.10;;;;;;;;;;5011914;28;20034;-67
2022/04/08 04:14:36;;;;;;;2.13;1.40;;;;;;;;;;5019468;28;20033;-67
2022/04/08 04:17:03;;;;;;;2.88;1.60;;;;;;;;;;5022520;28;20515;-66
2022/04/08 04:19:28;;;;;;;4.03;1.63;;;;;;;;;;5022612;28;20029;-66
2022/04/08 04:21:54;;;;;;;2.13;1.80;;;;;;;;;;5014989;28;20036;-67
2022/04/08 04:24:20;;;;;;;2.55;1.60;;;;;;;;;;5014840;28;20037;-66
2022/04/08 04:26:45;;;;;;;2.20;1.23;;;;;;;;;;5027075;28;20541;-66
2022/04/08 04:29:12;;;;;;;1.67;1.20;;;;;;;;;;5020827;28;20052;-66
2022/04/08 04:31:39;;;;;;;2.15;1.10;;;;;;;;;;5026019;28;20113;-66
2022/04/08 04:34:04;;;;;;;1.30;1.10;;;;;;;;;;5023329;28;20554;-67
2022/04/08 04:36:31;;;;;;;2.80;1.30;;;;;;;;;;5016772;28;20052;-67
2022/04/08 04:38:56;;;;;;;2.05;1.00;;;;;;;;;;5029477;28;20083;-67
2022/04/08 04:41:22;;;;;;;1.50;1.20;;;;;;;;;;5026884;28;20104;-66
2022/04/08 04:43:48;;;;;;;1.05;1.00;;;;;;;;;;5023274;28;20038;-67
2022/04/08 04:46:14;;;;;;;3.60;1.20;;;;;;;;;;5020303;28;20502;-66
2022/04/08 04:48:39;;;;;;;1.75;1.00;;;;;;;;;;5018172;28;20112;-66
2022/04/08 04:51:05;;;;;;;2.13;0.95;;;;;;;;;;5024389;28;20117;-66
2022/04/08 04:53:32;;;;;;;1.55;1.00;;;;;;;;;;5023029;28;20565;-66
2022/04/08 04:55:58;;;;;;;1.80;0.85;;;;;;;;;;5021188;28;20041;-67
2022/04/08 04:58:24;;;;;;;0.85;0.75;;;;;;;;;;5018207;28;20471;-66
2022/04/08 05:00:50;;;;;;;1.45;0.90;;;;;;;;;;5020525;28;20104;-66
2022/04/08 05:03:16;;;;;;;2.55;0.98;;;;;;;;;;5022347;28;20159;-67
2022/04/08 05:05:41;;;;;;;1.00;0.90;;;;;;;;;;5028213;28;20068;-66
2022/04/08 05:08:08;;;;;;;4.82;1.20;;;;;;;;;;5031721;28;20064;-65
2022/04/08 05:10:33;;;;;;;0.93;0.73;;;;;;;;;;5032091;28;20036;-66
2022/04/08 05:12:59;;;;;;;4.80;2.13;;;;;;;;;;5020002;28;20085;-66
2022/04/08 05:15:26;;;;;;;3.75;1.00;;;;;;;;;;5018227;28;20061;-67
2022/04/08 05:17:52;;;;;;;2.38;0.98;;;;;;;;;;5031873;28;20033;-66
2022/04/08 05:20:18;;;;;;;0.70;0.70;;;;;;;;;;5034593;28;20518;-67
2022/04/08 05:22:44;;;;;;;2.15;1.08;;;;;;;;;;5027411;28;20060;-66
2022/04/08 05:25:10;;;;;;;2.28;1.05;;;;;;;;;;5021091;28;20025;-66
2022/04/08 05:27:43;;;;;;;2.40;0.90;;;;;;;;;;5023668;28;20087;-66
2022/04/08 05:30:12;;;;;;;1.27;0.82;;;;;;;;;;5020368;28;20111;-66
2022/04/08 05:32:39;;;;;;;2.90;1.10;;;;;;;;;;5025032;28;20043;-66
2022/04/08 05:35:05;;;;;;;2.22;1.00;;;;;;;;;;5032637;28;20034;-66
2022/04/08 05:37:31;;;;;;;8.10;1.52;;;;;;;;;;5028068;28;20359;-66
2022/04/08 05:39:57;;;;;;;3.33;1.00;;;;;;;;;;5032317;28;20033;-66
2022/04/08 05:42:23;;;;;;;4.82;1.23;;;;;;;;;;5031112;28;20116;-66
2022/04/08 05:44:48;;;;;;;4.35;1.67;;;;;;;;;;5031851;28;20029;-66
2022/04/08 05:47:14;;;;;;;7.10;1.70;;;;;;;;;;5027385;28;20565;-66
2022/04/08 05:49:40;;;;;;;5.15;1.83;;;;;;;;;;5022906;28;20501;-66
2022/04/08 05:52:06;;;;;;;2.70;1.60;;;;;;;;;;5025418;28;20440;-66
2022/04/08 05:54:32;;;;;;;4.80;1.95;;;;;;;;;;5025630;28;20052;-66
2022/04/08 05:57:00;;;;;;;13.48;1.92;;;;;;;;;;5031182;28;20025;-66
2022/04/08 05:59:29;;;;;;;11.57;1.90;;;;;;;;;;5032756;28;20164;-66
2022/04/08 06:01:55;;;;;;;12.18;2.58;;;;;;;;;;5038272;28;20029;-66
2022/04/08 06:04:21;;;;;;;9.85;2.22;;;;;;;;;;5027575;28;20021;-67
2022/04/08 06:06:47;;;;;;;5.07;2.30;;;;;;;;;;5030646;28;20521;-65
2022/04/08 06:09:13;;;;;;;14.55;2.08;;;;;;;;;;5033499;28;20041;-66
2022/04/08 06:11:39;;;;;;;3.97;2.22;;;;;;;;;;5031565;28;20033;-66
2022/04/08 06:14:04;;;;;;;8.60;2.17;;;;;;;;;;5034313;28;20029;-67
2022/04/08 06:16:30;;;;;;;2.92;2.33;;;;;;;;;;5025359;28;20034;-66
2022/04/08 06:18:56;;;;;;;6.38;2.10;;;;;;;;;;5030928;28;20108;-66
2022/04/08 06:21:22;;;;;;;1.70;1.52;;;;;;;;;;5029874;28;20087;-67
2022/04/08 06:23:49;;;;;;;3.95;1.27;;;;;;;;;;5021174;28;20375;-66
2022/04/08 06:26:15;;;;;;;0.80;0.80;;;;;;;;;;5023544;28;20037;-66
2022/04/08 06:28:41;;;;;;;0.80;0.80;;;;;;;;;;5031330;28;20033;-66
2022/04/08 06:31:07;;;;;;;4.97;1.02;;;;;;;;;;5025496;28;20029;-66
2022/04/08 06:33:33;;;;;;;1.27;0.80;;;;;;;;;;5021457;28;20044;-66
2022/04/08 06:36:02;;;;;;;3.20;0.63;;;;;;;;;;5025142;28;20036;-66
2022/04/08 06:38:27;;;;;;;2.35;0.60;;;;;;;;;;5027490;28;20089;-66
2022/04/08 06:40:53;;;;;;;1.17;0.70;;;;;;;;;;5022877;28;20037;-66
2022/04/08 06:43:19;;;;;;;0.47;0.40;;;;;;;;;;5020594;28;20065;-66
2022/04/08 06:45:44;;;;;;;1.23;0.80;;;;;;;;;;5026127;28;20088;-66
2022/04/08 06:48:10;;;;;;;0.80;0.80;;;;;;;;;;5024017;28;20479;-66
2022/04/08 06:50:36;;;;;;;0.50;0.50;;;;;;;;;;5027090;28;20730;-66
2022/04/08 06:53:02;;;;;;;1.95;0.50;;;;;;;;;;5020002;28;20037;-66
2022/04/08 06:55:32;;;;;;;0.63;0.63;;;;;;;;;;5026839;28;20025;-66
2022/04/08 06:57:59;;;;;;;3.10;0.50;;;;;;;;;;5031832;28;20029;-66
2022/04/08 07:00:26;;;;;;;0.65;0.50;;;;;;;;;;5028119;28;20041;-66
2022/04/08 07:02:52;;;;;;;0.50;0.50;;;;;;;;;;5027143;28;20056;-66
2022/04/08 07:05:18;;;;;;;0.65;0.30;;;;;;;;;;5027409;28;20060;-66
2022/04/08 07:07:46;;;;;;;0.73;0.50;;;;;;;;;;5022663;28;20112;-66
2022/04/08 07:10:12;;;;;;;2.13;0.50;;;;;;;;;;5013280;28;20053;-67
2022/04/08 07:12:38;;;;;;;0.80;0.63;;;;;;;;;;5018075;28;20033;-66
2022/04/08 07:15:05;;;;;;;0.70;0.60;;;;;;;;;;5022923;28;20084;-66
2022/04/08 07:17:32;;;;;;;1.20;0.77;;;;;;;;;;5028441;28;20398;-67
2022/04/08 07:19:58;;;;;;;0.60;0.60;;;;;;;;;;5026531;28;20486;-67
2022/04/08 07:22:25;;;;;;;1.85;0.70;;;;;;;;;;5028950;28;20039;-66
2022/04/08 07:24:51;;;;;;;0.95;0.70;;;;;;;;;;5026972;28;20036;-66
2022/04/08 07:27:18;;;;;;;0.70;0.70;;;;;;;;;;5026745;28;20030;-66
2022/04/08 07:29:44;;;;;;;1.95;0.60;;;;;;;;;;5025976;28;20440;-66
2022/04/08 07:32:10;;;;;;;2.22;0.52;;;;;;;;;;5026386;28;20030;-66
2022/04/08 07:34:36;;;;;;;1.67;0.60;;;;;;;;;;5021332;28;20033;-66
2022/04/08 07:37:05;;;;;;;0.70;0.63;;;;;;;;;;5020072;28;20037;-66
2022/04/08 07:39:31;;;;;;;1.83;0.68;;;;;;;;;;5023750;28;20030;-66
2022/04/08 07:41:58;;;;;;;2.38;1.90;;;;;;;;;;5029561;28;20037;-66
2022/04/08 07:44:23;;;;;;;7.07;1.95;;;;;;;;;;5027479;28;20073;-66
2022/04/08 07:46:49;;;;;;;1.70;1.42;;;;;;;;;;5024169;28;20080;-66
2022/04/08 07:49:15;;;;;;;6.82;1.58;;;;;;;;;;5026534;28;20924;-66
2022/04/08 07:51:43;;;;;;;7.50;1.50;;;;;;;;;;5016912;28;20101;-66
2022/04/08 07:54:09;;;;;;;2.10;1.45;;;;;;;;;;5026627;28;20040;-65
2022/04/08 07:56:35;;;;;;;7.20;2.17;;;;;;;;;;5024156;28;20026;-66
2022/04/08 07:59:02;;;;;;;2.75;2.30;;;;;;;;;;5023022;28;20509;-65
2022/04/08 08:01:28;;;;;;;2.20;1.50;;;;;;;;;;5020619;28;20030;-65
2022/04/08 08:03:54;;;;;;;4.07;1.67;;;;;;;;;;5025907;28;20033;-65
2022/04/08 08:06:20;;;;;;;5.03;2.22;;;;;;;;;;5024135;28;20022;-65
2022/04/08 08:08:46;;;;;;;5.15;1.20;;;;;;;;;;5025025;28;20090;-65
2022/04/08 08:11:13;;;;;;;3.55;1.05;;;;;;;;;;5022324;28;20371;-66
2022/04/08 08:13:39;;;;;;;1.27;0.90;;;;;;;;;;5025297;28;20036;-65
2022/04/08 08:16:07;;;;;;;1.85;0.90;;;;;;;;;;5024019;28;20025;-65
2022/04/08 08:18:35;;;;;;;1.98;0.60;;;;;;;;;;5024530;28;28004;-65
2022/04/08 08:21:01;;;;;;;0.80;0.65;;;;;;;;;;5027111;28;20434;-65
2022/04/08 08:23:27;;;;;;;1.88;0.70;;;;;;;;;;5027923;28;20183;-65
2022/04/08 08:25:55;;;;;;;4.20;0.65;;;;;;;;;;5024899;28;20110;-65
2022/04/08 08:28:22;;;;;;;1.20;0.85;;;;;;;;;;5022986;28;20182;-65
2022/04/08 08:30:48;;;;;;;1.10;0.65;;;;;;;;;;5021904;28;20042;-65
2022/04/08 08:33:13;;;;;;;3.20;0.80;;;;;;;;;;5027086;28;20048;-66
2022/04/08 08:35:39;;;;;;;2.00;0.60;;;;;;;;;;5027902;28;20026;-65
2022/04/08 08:38:05;;;;;;;1.65;1.00;;;;;;;;;;5024256;28;20049;-66
2022/04/08 08:40:32;;;;;;;1.95;0.90;;;;;;;;;;5022461;28;20034;-66
2022/04/08 08:43:00;;;;;;;4.05;1.05;;;;;;;;;;5024264;28;20064;-65
2022/04/08 08:45:32;;;;;;;7.82;1.23;;;;;;;;;;5024084;28;20060;-66
2022/04/08 08:48:02;;;;;;;2.95;1.02;;;;;;;;;;5029890;28;20037;-66
2022/04/08 08:50:29;;;;;;;2.75;1.10;;;;;;;;;;5021342;28;20041;-66
2022/04/08 08:52:56;;;;;;;2.50;1.20;;;;;;;;;;5020946;28;20732;-66
2022/04/08 08:55:22;;;;;;;9.85;1.05;;;;;;;;;;5024078;28;20473;-65
2022/04/08 08:57:49;;;;;;;2.25;1.10;;;;;;;;;;5023638;28;20486;-66
2022/04/08 09:00:18;;;;;;;5.65;1.38;;;;;;;;;;5030673;28;20045;-65
2022/04/08 09:02:45;;;;;;;8.85;1.08;;;;;;;;;;5024374;28;20383;-65
2022/04/08 09:05:24;;;;;;;4.88;0.98;;;;;;;;;;5016993;28;20518;-64
2022/04/08 09:07:56;;;;;;;2.97;1.02;;;;;;;;;;5018248;28;20029;-65
2022/04/08 09:10:26;;;;;;;3.22;2.00;;;;;;;;;;5020231;28;20117;-65
2022/04/08 09:12:56;;;;;;;3.10;2.40;;;;;;;;;;5023560;28;20034;-64
2022/04/08 09:15:23;;;;;;;2.03;1.77;;;;;;;;;;5023510;28;20022;-65
2022/04/08 09:17:49;;;;;;;7.90;2.90;;;;;;;;;;5027927;28;20033;-65
2022/04/08 09:20:15;;;;;;;4.63;3.72;;;;;;;;;;5023398;28;20029;-65
2022/04/08 09:22:42;;;;;;;7.05;2.30;;;;;;;;;;5018752;28;20037;-66
2022/04/08 09:25:10;;;;;;;12.85;4.32;;;;;;;;;;5021808;28;20751;-64
2022/04/08 09:27:41;;;;;;;7.47;5.03;;;;;;;;;;5024413;28;20406;-65
2022/04/08 09:30:08;;;;;;;8.13;4.05;;;;;;;;;;5024323;28;20064;-64
2022/04/08 09:32:35;;;;;;;12.23;4.50;;;;;;;;;;5027727;28;20100;-65
2022/04/08 09:35:02;;;;;;;9.00;3.95;;;;;;;;;;5025957;28;20045;-65
2022/04/08 09:37:31;;;;;;;5.60;3.30;;;;;;;;;;5023358;28;20025;-63
2022/04/08 09:40:03;;;;;;;10.82;4.70;;;;;;;;;;5023089;28;20283;-65
2022/04/08 09:42:42;;;;;;;7.05;2.28;;;;;;;;;;5020194;28;20042;-65
2022/04/08 09:45:09;;;;;;;5.60;2.35;;;;;;;;;;5022468;28;20118;-66
2022/04/08 09:47:35;;;;;;;8.65;4.03;;;;;;;;;;5020220;28;20087;-65
2022/04/08 09:50:01;;;;;;;9.32;5.72;;;;;;;;;;5023831;28;20029;-65
2022/04/08 09:52:28;;;;;;;11.93;7.00;;;;;;;;;;5019551;28;20033;-65
2022/04/08 09:54:58;;;;;;;11.65;3.83;;;;;;;;;;5022125;28;20029;-66
2022/04/08 09:57:24;;;;;;;19.70;9.02;;;;;;;;;;5023945;28;20478;-65
2022/04/08 09:59:57;;;;;;;20.55;9.05;;;;;;;;;;5024078;28;20056;-65
2022/04/08 10:02:26;;;;;;;4.68;2.65;;;;;;;;;;5023771;28;20065;-65
2022/04/08 10:04:54;;;;;;;2.17;1.10;;;;;;;;;;5022131;28;20058;-65
2022/04/08 10:07:20;;;;;;;2.95;0.95;;;;;;;;;;5020348;28;20025;-66
2022/04/08 10:09:56;;;;;;;8.80;1.35;;;;;;;;;;5021923;28;20458;-66
2022/04/08 10:13:09;;;;;;;3.42;1.13;;;;;;;;;;5026442;28;20083;-66
2022/04/08 10:15:38;;;;;;;2.35;0.93;;;;;;;;;;5025843;28;20033;-66
2022/04/08 10:18:05;;;;;;;2.33;1.10;;;;;;;;;;5026849;28;20037;-66
2022/04/08 10:20:35;;;;;;;3.00;1.70;;;;;;;;;;5024692;28;20034;-66
2022/04/08 10:23:15;;;;;;;3.72;1.83;;;;;;;;;;5026177;28;20393;-65
2022/04/08 10:25:48;;;;;;;3.75;1.30;;;;;;;;;;5024612;28;20421;-66
2022/04/08 10:28:13;;;;;;;4.50;1.45;;;;;;;;;;5023490;28;20040;-66
2022/04/08 10:30:47;;;;;;;4.82;1.88;;;;;;;;;;5028369;28;20034;-66
2022/04/08 10:33:23;;;;;;;5.85;3.42;;;;;;;;;;5020818;28;20405;-66
2022/04/08 10:35:56;;;;;;;8.38;5.00;;;;;;;;;;5024488;28;20068;-66
2022/04/08 10:38:22;;;;;;;12.63;5.88;;;;;;;;;;5029786;28;20493;-65
2022/04/08 10:40:58;;;;;;;5.65;3.97;;;;;;;;;;5024285;28;20095;-64
2022/04/08 10:43:26;;;;;;;7.28;4.15;;;;;;;;;;5020066;28;20050;-66
2022/04/08 10:45:55;;;;;;;9.82;4.40;;;;;;;;;;5021183;28;20055;-66
2022/04/08 10:48:22;;;;;;;9.68;4.82;;;;;;;;;;5021282;28;20111;-66
2022/04/08 10:50:48;;;;;;;8.38;5.50;;;;;;;;;;5020403;28;20112;-66
2022/04/08 10:53:19;;;;;;;12.45;7.00;;;;;;;;;;5024515;28;20820;-66
2022/04/08 10:55:49;;;;;;;11.13;6.23;;;;;;;;;;5021066;28;20414;-65
2022/04/08 10:58:28;;;;;;;10.07;6.10;;;;;;;;;;5018976;28;20052;-65
2022/04/08 11:00:53;;;;;;;9.25;5.65;;;;;;;;;;5023962;28;20056;-65
2022/04/08 11:03:25;;;;;;;10.68;5.68;;;;;;;;;;5027164;28;20451;-65
2022/04/08 11:05:51;;;;;;;11.68;5.03;;;;;;;;;;5027385;28;20037;-66
2022/04/08 11:08:17;;;;;;;6.32;4.28;;;;;;;;;;5024991;28;20052;-65
2022/04/08 11:10:43;;;;;;;9.88;4.95;;;;;;;;;;5024340;28;20029;-65
2022/04/08 11:13:11;;;;;;;7.60;5.25;;;;;;;;;;5024008;28;20025;-65
2022/04/08 11:15:43;;;;;;;17.35;5.63;;;;;;;;;;5025129;28;20030;-65
2022/04/08 11:18:10;;;;;;;10.70;6.82;;;;;;;;;;5028683;28;20068;-64
2022/04/08 11:20:36;;;;;;;12.57;7.00;;;;;;;;;;5028379;28;20034;-65
2022/04/08 11:23:02;;;;;;;11.15;6.75;;;;;;;;;;5026558;28;20410;-65
2022/04/08 11:25:29;;;;;;;10.23;5.90;;;;;;;;;;5024598;28;20064;-63
2022/04/08 11:28:04;;;;;;;11.48;4.30;;;;;;;;;;5026511;28;20025;-65
2022/04/08 11:30:33;;;;;;;13.32;8.05;;;;;;;;;;5025680;28;20087;-65
2022/04/08 11:33:00;;;;;;;17.83;9.32;;;;;;;;;;5026643;28;20052;-66
2022/04/08 11:35:31;;;;;;;10.25;4.90;;;;;;;;;;5029451;28;20120;-65
2022/04/08 11:37:58;;;;;;;3.17;1.42;;;;;;;;;;5023046;28;20021;-65
2022/04/08 11:40:23;;;;;;;4.85;1.08;;;;;;;;;;5025375;28;20037;-65
2022/04/08 11:42:49;;;;;;;1.23;0.85;;;;;;;;;;5025665;28;20121;-64
2022/04/08 11:45:16;;;;;;;2.72;1.13;;;;;;;;;;5025059;28;20033;-65
2022/04/08 11:47:47;;;;;;;1.80;0.90;;;;;;;;;;5023317;28;20032;-65
2022/04/08 11:50:13;;;;;;;3.17;1.27;;;;;;;;;;5020746;28;20056;-65
2022/04/08 11:52:39;;;;;;;5.38;1.58;;;;;;;;;;5014357;28;20060;-65
2022/04/08 11:55:07;;;;;;;5.93;1.30;;;;;;;;;;5021411;28;20033;-66
2022/04/08 11:57:34;;;;;;;4.28;1.40;;;;;;;;;;5023601;28;20033;-66
2022/04/08 12:00:05;;;;;;;4.03;1.20;;;;;;;;;;5024284;28;20061;-64
2022/04/08 12:02:32;;;;;;;8.63;1.48;;;;;;;;;;5015788;28;20440;-66
2022/04/08 12:04:58;;;;;;;3.67;0.95;;;;;;;;;;5020851;28;20120;-65
2022/04/08 12:07:28;;;;;;;4.63;1.45;;;;;;;;;;5024249;28;20029;-66
2022/04/08 12:10:00;;;;;;;7.10;1.42;;;;;;;;;;5021744;28;20113;-65
2022/04/08 12:12:30;;;;;;;5.63;1.50;;;;;;;;;;5027216;28;20087;-66
2022/04/08 12:15:09;;;;;;;9.07;1.52;;;;;;;;;;5023173;28;20042;-65
2022/04/08 12:17:45;;;;;;;4.90;1.30;;;;;;;;;;5026843;28;20029;-65
2022/04/08 12:20:16;;;;;;;7.25;1.50;;;;;;;;;;5026941;28;20036;-65
2022/04/08 12:22:44;;;;;;;4.85;1.52;;;;;;;;;;5025048;28;20616;-66
2022/04/08 12:25:12;;;;;;;9.05;1.45;;;;;;;;;;5023037;28;20041;-66
2022/04/08 12:27:38;;;;;;;6.15;1.50;;;;;;;;;;5020652;28;20060;-65
2022/04/08 12:30:08;;;;;;;10.95;2.10;;;;;;;;;;5026518;28;20470;-65
2022/04/08 12:32:36;;;;;;;5.85;1.65;;;;;;;;;;5024014;28;20056;-66
2022/04/08 12:35:04;;;;;;;3.70;1.58;;;;;;;;;;5028591;28;20504;-66
2022/04/08 12:37:29;;;;;;;4.97;2.00;;;;;;;;;;5025842;28;20114;-65
2022/04/08 12:39:55;;;;;;;2.65;1.80;;;;;;;;;;5026144;28;20130;-66
2022/04/08 12:42:21;;;;;;;5.65;2.10;;;;;;;;;;5022719;28;20419;-66
2022/04/08 12:44:46;;;;;;;3.78;1.50;;;;;;;;;;5030955;28;20694;-66
2022/04/08 12:47:12;;;;;;;5.28;1.52;;;;;;;;;;5026167;28;20460;-66
2022/04/08 12:49:38;;;;;;;6.60;1.38;;;;;;;;;;5021411;28;20057;-65
2022/04/08 12:52:04;;;;;;;8.15;1.80;;;;;;;;;;5022312;28;20045;-66
2022/04/08 12:54:29;;;;;;;8.27;1.73;;;;;;;;;;5029336;28;20397;-66
2022/04/08 12:56:55;;;;;;;6.25;2.42;;;;;;;;;;5028540;28;20029;-65
2022/04/08 12:59:21;;;;;;;13.70;2.72;;;;;;;;;;5027577;28;20028;-65
2022/04/08 13:01:46;;;;;;;3.90;2.17;;;;;;;;;;5023252;28;20080;-65
2022/04/08 13:04:12;;;;;;;5.45;2.03;;;;;;;;;;5023352;28;20033;-66
2022/04/08 13:06:38;;;;;;;5.03;2.38;;;;;;;;;;5023205;28;20030;-65
2022/04/08 13:09:03;;;;;;;7.30;2.63;;;;;;;;;;5027867;28;20104;-65
2022/04/08 13:11:29;;;;;;;8.23;2.42;;;;;;;;;;5023488;28;20041;-64
2022/04/08 13:13:54;;;;;;;7.30;2.22;;;;;;;;;;5025417;28;20553;-67
2022/04/08 13:16:20;;;;;;;5.43;2.00;;;;;;;;;;5028865;28;20035;-66
2022/04/08 13:18:46;;;;;;;11.55;2.13;;;;;;;;;;5025149;28;20030;-66
2022/04/08 13:21:11;;;;;;;7.35;2.20;;;;;;;;;;5022707;28;20129;-66
2022/04/08 13:23:37;;;;;;;7.00;1.88;;;;;;;;;;5016258;28;20645;-65
2022/04/08 13:26:03;;;;;;;7.90;2.80;;;;;;;;;;5023857;28;20482;-66
2022/04/08 13:28:29;;;;;;;9.25;1.95;;;;;;;;;;5015992;28;20454;-66
2022/04/08 13:30:54;;;;;;;3.63;1.60;;;;;;;;;;5015805;28;20423;-65
2022/04/08 13:33:20;;;;;;;6.03;2.15;;;;;;;;;;5025631;28;20029;-66
2022/04/08 13:35:48;;;;;;;6.82;1.73;;;;;;;;;;5024730;28;20034;-66
2022/04/08 13:38:13;;;;;;;11.57;2.55;;;;;;;;;;5026595;28;20076;-67
2022/04/08 13:40:39;;;;;;;7.13;2.58;;;;;;;;;;5027490;28;20033;-66
2022/04/08 13:43:05;;;;;;;11.55;2.45;;;;;;;;;;5023373;28;20133;-67
2022/04/08 13:45:31;;;;;;;8.40;2.20;;;;;;;;;;5027253;28;20033;-66
2022/04/08 13:47:56;;;;;;;10.20;2.30;;;;;;;;;;5028947;28;20083;-66
2022/04/08 13:50:22;;;;;;;8.98;2.67;;;;;;;;;;5025952;28;20037;-66
2022/04/08 13:52:48;;;;;;;7.15;2.40;;;;;;;;;;5027638;28;20075;-66
2022/04/08 13:55:14;;;;;;;9.02;1.88;;;;;;;;;;5025876;28;20079;-66
2022/04/08 13:57:40;;;;;;;7.78;2.88;;;;;;;;;;5025465;28;20105;-66
2022/04/08 14:00:06;;;;;;;5.32;2.05;;;;;;;;;;5029938;28;20037;-66
2022/04/08 14:02:33;;;;;;;5.53;2.50;;;;;;;;;;5022127;28;20060;-65
2022/04/08 14:04:59;;;;;;;9.18;2.03;;;;;;;;;;5027457;28;20433;-66
2022/04/08 14:07:25;;;;;;;10.52;2.33;;;;;;;;;;5017540;28;20095;-66
2022/04/08 14:09:50;;;;;;;4.60;1.80;;;;;;;;;;5023769;28;20033;-66
2022/04/08 14:12:18;;;;;;;6.55;1.75;;;;;;;;;;5030369;28;20047;-66
2022/04/08 14:14:45;;;;;;;4.60;1.55;;;;;;;;;;5027245;28;20379;-66
2022/04/08 14:17:12;;;;;;;5.72;1.88;;;;;;;;;;5021769;28;20546;-66
2022/04/08 14:19:38;;;;;;;7.03;1.98;;;;;;;;;;5019161;28;20067;-66
2022/04/08 14:22:03;;;;;;;10.30;3.13;;;;;;;;;;5023717;28;20026;-66
2022/04/08 14:24:29;;;;;;;6.22;1.70;;;;;;;;;;5022000;28;20037;-66
2022/04/08 14:26:55;;;;;;;4.80;1.90;;;;;;;;;;5028639;28;20030;-66
2022/04/08 14:29:20;;;;;;;8.50;2.00;;;;;;;;;;5025086;28;20030;-64
2022/04/08 14:31:46;;;;;;;6.95;1.70;;;;;;;;;;5028639;28;20112;-65
2022/04/08 14:34:12;;;;;;;4.45;1.80;;;;;;;;;;5030035;28;20029;-65
2022/04/08 14:36:37;;;;;;;4.95;2.25;;;;;;;;;;5023810;28;20042;-64
2022/04/08 14:39:04;;;;;;;9.00;2.13;;;;;;;;;;5032537;28;20041;-66